Time;durP1;ratioP1;P1;durP2;ratioP2;P2;SDS_P1;SDS_P2;PMS_P1;PMS_P2;Temp;Humidity;BMP_temperature;BMP_pressure;BME280_temperature;BME280_humidity;BME280_pressure;Samples;Min_cycle;Max_cycle;Signal;HPM_P1;HPM_P2
2023/11/16 00:01:56;;;;;;;7.43;3.20;;;;;;;7.87;72.56;96538.06;5028088;28;20487;-71
2023/11/16 00:04:22;;;;;;;6.83;3.13;;;;;;;7.85;72.18;96538.09;5028033;28;20415;-71
2023/11/16 00:06:47;;;;;;;5.30;2.73;;;;;;;7.88;72.54;96531.91;5028118;28;20425;-71
2023/11/16 00:09:12;;;;;;;8.70;3.43;;;;;;;7.73;72.58;96529.78;5028043;28;20167;-71
2023/11/16 00:11:41;;;;;;;9.50;3.23;;;;;;;7.68;73.29;96532.53;5028138;28;20252;-71
2023/11/16 00:14:06;;;;;;;6.00;3.20;;;;;;;7.75;72.69;96527.97;5027267;28;20179;-71
2023/11/16 00:16:32;;;;;;;4.87;3.20;;;;;;;7.69;72.63;96534.22;5026667;28;20424;-71
2023/11/16 00:19:00;;;;;;;8.40;3.87;;;;;;;7.62;72.76;96535.31;5028204;28;20198;-71
2023/11/16 00:21:26;;;;;;;10.43;3.20;;;;;;;7.64;72.54;96536.97;5028136;28;20449;-71
2023/11/16 00:23:52;;;;;;;9.00;3.80;;;;;;;7.71;71.87;96535.03;5028071;28;20925;-70
2023/11/16 00:26:19;;;;;;;10.60;3.83;;;;;;;7.70;72.92;96541.19;5027843;28;20450;-71
2023/11/16 00:28:45;;;;;;;7.20;3.40;;;;;;;7.59;73.08;96540.63;5027909;28;20414;-71
2023/11/16 00:31:15;;;;;;;3.77;2.90;;;;;;;7.67;72.30;96530.81;5027654;28;20496;-71
2023/11/16 00:33:44;;;;;;;5.13;2.70;;;;;;;7.60;72.84;96543.19;5014510;28;21038;-70
2023/11/16 00:36:11;;;;;;;8.00;3.30;;;;;;;7.59;72.35;96535.41;5007746;28;20426;-70
2023/11/16 00:38:38;;;;;;;8.33;3.33;;;;;;;7.42;73.83;96530.69;5007965;28;21074;-70
2023/11/16 00:41:08;;;;;;;10.20;4.07;;;;;;;7.28;74.82;96528.47;5007614;28;21181;-70
2023/11/16 00:43:36;;;;;;;9.73;3.57;;;;;;;7.36;73.74;96526.50;5007781;28;20533;-71
2023/11/16 00:46:04;;;;;;;5.00;3.20;;;;;;;7.21;74.19;96524.34;5007577;28;20514;-71
2023/11/16 00:48:32;;;;;;;5.30;3.43;;;;;;;7.28;74.26;96520.66;5007713;28;20522;-70
2023/11/16 00:50:58;;;;;;;6.30;3.90;;;;;;;7.35;74.16;96522.19;5007763;28;20470;-71
2023/11/16 00:53:25;;;;;;;9.20;4.10;;;;;;;7.31;73.88;96520.56;5007578;28;20443;-72
2023/11/16 00:55:50;;;;;;;6.70;3.87;;;;;;;7.11;74.86;96521.13;5007447;28;20254;-70
2023/11/16 00:58:19;;;;;;;4.17;3.77;;;;;;;6.62;76.72;96538.13;5007871;28;20415;-71
2023/11/16 01:00:46;;;;;;;5.20;4.03;;;;;;;6.77;76.36;96526.41;5007544;28;20639;-71
2023/11/16 01:03:11;;;;;;;8.70;3.57;;;;;;;7.03;76.08;96537.91;5007212;28;20558;-71
2023/11/16 01:05:37;;;;;;;8.47;4.07;;;;;;;7.04;75.81;96532.66;5006980;28;20499;-72
2023/11/16 01:08:09;;;;;;;5.73;4.00;;;;;;;7.05;75.31;96529.13;5007444;28;20602;-71
2023/11/16 01:10:37;;;;;;;7.27;5.10;;;;;;;7.31;74.61;96527.53;5007315;28;20439;-69
2023/11/16 01:13:07;;;;;;;12.30;4.57;;;;;;;7.46;74.23;96519.25;5007245;28;20502;-72
2023/11/16 01:15:38;;;;;;;6.10;4.53;;;;;;;7.35;73.94;96522.19;5006671;28;20430;-71
2023/11/16 01:18:10;;;;;;;6.03;4.10;;;;;;;7.50;74.81;96520.03;5007066;28;20435;-71
2023/11/16 01:20:36;;;;;;;7.13;4.10;;;;;;;7.59;73.88;96519.75;5006959;28;20577;-70
2023/11/16 01:23:09;;;;;;;4.63;3.90;;;;;;;7.58;74.37;96516.28;5006844;28;20495;-71
2023/11/16 01:25:38;;;;;;;9.93;4.03;;;;;;;7.52;74.39;96518.22;5006725;28;20808;-71
2023/11/16 01:28:04;;;;;;;7.60;4.30;;;;;;;7.36;75.00;96526.50;5006886;28;20464;-71
2023/11/16 01:30:29;;;;;;;5.83;3.70;;;;;;;7.44;74.50;96513.25;5006706;28;20459;-71
2023/11/16 01:32:55;;;;;;;8.23;4.37;;;;;;;7.37;74.85;96507.34;5013411;28;20178;-71
2023/11/16 01:35:25;;;;;;;9.27;3.30;;;;;;;7.40;73.90;96514.22;5026044;28;20271;-71
2023/11/16 01:37:52;;;;;;;13.70;3.93;;;;;;;7.49;74.05;96507.84;5026565;28;20175;-71
2023/11/16 01:40:18;;;;;;;7.73;3.87;;;;;;;7.52;73.92;96507.78;5026236;28;20421;-71
2023/11/16 01:42:44;;;;;;;7.20;3.90;;;;;;;7.42;74.36;96505.44;5026391;28;20504;-70
2023/11/16 01:45:29;;;;;;;6.10;4.23;;;;;;;7.53;73.76;96507.72;5025856;28;21038;-71
2023/11/16 01:48:01;;;;;;;7.23;3.63;;;;;;;7.50;73.83;96499.13;5026564;28;20418;-71
2023/11/16 01:50:38;;;;;;;6.70;4.03;;;;;;;7.50;73.36;96502.59;5025974;28;21114;-70
2023/11/16 01:53:09;;;;;;;10.63;4.53;;;;;;;7.29;74.51;96503.22;5026202;28;20529;-71
2023/11/16 01:55:37;;;;;;;4.33;3.60;;;;;;;7.31;74.29;96494.44;5026009;28;20418;-71
2023/11/16 01:58:04;;;;;;;5.13;4.63;;;;;;;7.37;74.41;96502.13;5026370;28;20836;-70
2023/11/16 02:00:31;;;;;;;7.90;3.83;;;;;;;7.27;74.41;96497.19;5026017;28;20468;-71
2023/11/16 02:03:00;;;;;;;10.33;4.10;;;;;;;7.47;74.01;96505.31;5026247;28;20465;-71
2023/11/16 02:05:26;;;;;;;7.50;3.70;;;;;;;7.51;73.62;96496.47;5025593;28;20494;-70
2023/11/16 02:07:51;;;;;;;6.10;3.73;;;;;;;7.42;73.83;96502.81;5026117;28;20449;-70
2023/11/16 02:10:17;;;;;;;6.10;3.00;;;;;;;7.43;73.46;96490.63;5026264;28;20175;-71
2023/11/16 02:12:52;;;;;;;6.03;4.43;;;;;;;7.40;74.06;96499.41;5025868;28;20202;-72
2023/11/16 02:15:18;;;;;;;5.50;3.80;;;;;;;7.41;74.27;96490.66;5025219;28;20186;-71
2023/11/16 02:17:43;;;;;;;6.93;3.27;;;;;;;7.45;73.91;96496.66;5025389;28;20402;-71
2023/11/16 02:20:10;;;;;;;7.90;4.00;;;;;;;7.51;72.99;96500.81;5025762;28;20179;-71
2023/11/16 02:22:38;;;;;;;5.90;3.40;;;;;;;7.39;73.67;96496.81;5025921;28;20203;-72
2023/11/16 02:25:05;;;;;;;6.00;3.60;;;;;;;7.49;74.15;96500.00;5025928;28;20417;-71
2023/11/16 02:27:31;;;;;;;15.43;5.30;;;;;;;7.45;73.58;96490.59;5026518;28;20985;-71
2023/11/16 02:29:57;;;;;;;7.27;3.43;;;;;;;7.37;73.85;96491.66;5026643;28;20518;-71
2023/11/16 02:32:23;;;;;;;7.30;4.13;;;;;;;7.39;73.50;96487.25;5024242;28;20258;-72
2023/11/16 02:34:49;;;;;;;5.00;3.37;;;;;;;7.26;74.70;96490.28;5006723;28;20297;-71
2023/11/16 02:37:14;;;;;;;5.53;3.10;;;;;;;7.33;74.05;96492.66;5007564;28;20443;-71
2023/11/16 02:39:39;;;;;;;4.93;3.23;;;;;;;7.36;73.73;96482.09;5012906;28;20184;-72
2023/11/16 02:42:05;;;;;;;6.63;3.47;;;;;;;7.34;73.50;96473.47;5012816;28;20196;-71
2023/11/16 02:44:32;;;;;;;9.87;3.83;;;;;;;7.34;74.21;96478.69;5013076;28;20180;-71
2023/11/16 02:46:58;;;;;;;8.53;3.90;;;;;;;7.36;73.81;96479.50;5013111;28;20179;-71
2023/11/16 02:49:24;;;;;;;5.80;3.63;;;;;;;7.23;74.56;96478.19;5013788;28;20407;-71
2023/11/16 02:51:50;;;;;;;6.47;3.20;;;;;;;7.32;74.17;96472.69;5021481;28;20446;-70
2023/11/16 02:54:15;;;;;;;12.47;4.20;;;;;;;7.20;74.44;96470.41;5028348;28;20242;-71
2023/11/16 02:56:41;;;;;;;6.30;3.30;;;;;;;7.19;74.40;96474.78;5029530;28;20411;-72
2023/11/16 02:59:07;;;;;;;5.40;3.60;;;;;;;6.93;75.58;96487.72;5023450;28;20266;-72
2023/11/16 03:01:32;;;;;;;5.40;3.80;;;;;;;7.20;73.98;96486.06;5014365;28;20619;-71
2023/11/16 03:03:58;;;;;;;12.90;3.97;;;;;;;7.05;74.43;96484.78;5012957;28;20576;-71
2023/11/16 03:06:23;;;;;;;4.67;3.60;;;;;;;7.07;74.73;96480.38;5013221;28;20195;-69
2023/11/16 03:08:49;;;;;;;7.30;4.20;;;;;;;7.08;74.51;96473.38;5013006;28;20551;-72
2023/11/16 03:11:15;;;;;;;7.50;4.87;;;;;;;7.15;74.07;96477.53;5012854;28;20196;-70
2023/11/16 03:13:41;;;;;;;5.43;3.47;;;;;;;7.20;74.37;96480.84;5013350;28;20229;-71
2023/11/16 03:16:07;;;;;;;9.33;3.80;;;;;;;6.96;75.28;96477.19;5013220;28;20529;-71
2023/11/16 03:18:32;;;;;;;6.47;4.33;;;;;;;7.02;74.64;96484.03;5016660;28;20683;-71
2023/11/16 03:20:58;;;;;;;4.87;3.27;;;;;;;7.05;75.17;96479.56;5012873;28;20689;-70
2023/11/16 03:23:23;;;;;;;7.87;3.40;;;;;;;7.08;74.05;96478.59;5012707;28;20669;-71
2023/11/16 03:25:50;;;;;;;7.50;3.27;;;;;;;7.11;74.36;96479.38;5011965;28;20270;-71
2023/11/16 03:28:16;;;;;;;11.33;4.30;;;;;;;7.12;74.37;96481.09;5012456;28;21115;-69
2023/11/16 03:30:41;;;;;;;7.40;3.83;;;;;;;7.27;74.24;96478.91;5012459;28;20682;-70
2023/11/16 03:33:08;;;;;;;9.23;3.77;;;;;;;7.20;73.92;96473.91;5020772;28;20172;-71
2023/11/16 03:35:34;;;;;;;3.97;3.17;;;;;;;7.26;73.47;96465.03;5031774;28;20174;-71
2023/11/16 03:37:59;;;;;;;5.13;3.20;;;;;;;7.35;73.23;96464.75;5031864;28;20414;-71
2023/11/16 03:40:24;;;;;;;6.80;3.47;;;;;;;7.43;72.98;96465.34;5032375;28;20234;-71
2023/11/16 03:42:50;;;;;;;6.07;3.47;;;;;;;7.36;73.16;96463.84;5032572;28;20293;-69
2023/11/16 03:45:15;;;;;;;4.23;2.80;;;;;;;7.42;73.59;96460.22;5031974;28;20180;-71
2023/11/16 03:47:41;;;;;;;10.93;3.63;;;;;;;7.43;73.33;96444.47;5032323;28;20182;-71
2023/11/16 03:50:06;;;;;;;10.83;4.80;;;;;;;7.36;73.39;96432.50;5028758;28;20258;-70
2023/11/16 03:52:32;;;;;;;5.70;2.97;;;;;;;7.21;74.48;96436.44;5029034;28;20191;-70
2023/11/16 03:54:58;;;;;;;8.23;3.27;;;;;;;7.30;73.35;96427.50;5030785;28;20183;-71
2023/11/16 03:57:24;;;;;;;5.60;3.73;;;;;;;7.32;74.17;96428.31;5027605;28;20276;-70
2023/11/16 03:59:49;;;;;;;9.33;3.40;;;;;;;7.29;73.88;96433.59;5028960;28;20870;-71
2023/11/16 04:02:15;;;;;;;4.90;3.60;;;;;;;7.34;73.57;96436.06;5028654;28;20329;-71
2023/11/16 04:04:42;;;;;;;7.93;3.77;;;;;;;7.37;73.60;96430.75;5028599;28;20254;-71
2023/11/16 04:07:08;;;;;;;8.23;3.53;;;;;;;7.33;73.39;96419.56;5028953;28;20823;-70
2023/11/16 04:09:36;;;;;;;5.70;3.43;;;;;;;7.46;73.48;96424.41;5029003;28;20836;-69
2023/11/16 04:12:02;;;;;;;7.97;4.37;;;;;;;7.37;73.62;96415.97;5028793;28;20434;-71
2023/11/16 04:14:27;;;;;;;8.43;3.50;;;;;;;7.35;73.51;96407.31;5026993;28;20438;-72
2023/11/16 04:16:53;;;;;;;6.50;3.47;;;;;;;7.29;73.56;96409.25;5028387;28;20225;-71
2023/11/16 04:19:20;;;;;;;6.70;3.97;;;;;;;7.41;73.33;96407.09;5031380;28;20304;-72
2023/11/16 04:21:46;;;;;;;5.17;4.00;;;;;;;7.40;73.14;96404.56;5028870;28;20292;-70
2023/11/16 04:24:13;;;;;;;7.13;4.43;;;;;;;7.07;74.71;96409.06;5029385;28;20529;-70
2023/11/16 04:26:38;;;;;;;7.90;3.90;;;;;;;7.02;74.71;96408.34;5028762;28;20498;-71
2023/11/16 04:29:05;;;;;;;10.73;4.30;;;;;;;7.03;74.96;96413.50;5029411;28;20464;-72
2023/11/16 04:31:32;;;;;;;12.90;4.40;;;;;;;7.16;74.51;96403.56;5028621;28;20960;-69
2023/11/16 04:33:57;;;;;;;4.33;3.83;;;;;;;7.15;74.76;96394.88;5012333;28;20525;-73
2023/11/16 04:36:28;;;;;;;8.63;4.37;;;;;;;7.24;74.42;96392.88;5008197;28;20528;-71
2023/11/16 04:38:57;;;;;;;5.73;4.70;;;;;;;7.21;74.61;96410.34;5008027;28;20252;-70
2023/11/16 04:41:27;;;;;;;5.10;3.30;;;;;;;7.43;73.89;96413.13;5008066;28;20435;-70
2023/11/16 04:43:56;;;;;;;8.13;5.00;;;;;;;7.49;74.09;96406.00;5008467;28;20482;-71
2023/11/16 04:46:24;;;;;;;15.43;4.30;;;;;;;7.49;73.75;96404.28;5007943;28;20462;-72
2023/11/16 04:48:50;;;;;;;3.70;3.40;;;;;;;7.57;73.04;96404.88;5007905;28;20418;-69
2023/11/16 04:51:19;;;;;;;3.57;3.03;;;;;;;7.44;73.54;96406.19;5007519;28;20439;-71
2023/11/16 04:53:45;;;;;;;4.93;3.33;;;;;;;7.51;73.00;96406.81;5008108;28;20761;-70
2023/11/16 04:56:10;;;;;;;7.40;4.33;;;;;;;7.54;72.88;96407.59;5009248;28;20434;-71
2023/11/16 04:58:36;;;;;;;4.73;3.10;;;;;;;7.52;73.44;96408.56;5024119;28;21284;-71
2023/11/16 05:01:02;;;;;;;10.23;5.30;;;;;;;7.45;73.37;96405.28;5024887;28;21070;-71
2023/11/16 05:03:28;;;;;;;4.37;3.40;;;;;;;7.62;73.13;96407.34;5025444;28;20253;-69
2023/11/16 05:05:53;;;;;;;14.20;4.20;;;;;;;7.63;73.44;96414.28;5024821;28;20505;-72
2023/11/16 05:08:20;;;;;;;7.63;3.10;;;;;;;7.63;73.49;96414.28;5025088;28;20187;-71
2023/11/16 05:10:47;;;;;;;10.30;4.57;;;;;;;7.54;72.82;96409.34;5025304;28;20191;-72
2023/11/16 05:13:13;;;;;;;8.17;5.40;;;;;;;7.52;73.56;96401.56;5025104;28;20406;-69
2023/11/16 05:15:38;;;;;;;11.53;4.77;;;;;;;7.66;73.24;96380.22;5019152;28;20463;-70
2023/11/16 05:18:04;;;;;;;7.67;3.50;;;;;;;7.52;73.51;96377.22;5009884;28;20186;-69
2023/11/16 05:20:30;;;;;;;7.67;4.60;;;;;;;7.52;73.57;96378.06;5021529;28;20238;-71
2023/11/16 05:22:55;;;;;;;12.17;4.53;;;;;;;7.53;73.99;96378.91;5021699;28;20712;-72
2023/11/16 05:25:21;;;;;;;9.17;4.40;;;;;;;7.52;74.24;96365.00;5020335;28;20438;-71
2023/11/16 05:27:46;;;;;;;5.23;4.10;;;;;;;7.58;74.15;96362.22;5021369;28;20217;-69
2023/11/16 05:30:12;;;;;;;6.07;3.70;;;;;;;7.62;73.52;96370.78;5022767;28;20187;-70
2023/11/16 05:32:38;;;;;;;10.10;4.20;;;;;;;7.70;73.54;96366.19;5022749;28;20595;-71
2023/11/16 05:35:04;;;;;;;8.60;5.37;;;;;;;7.58;73.54;96366.56;5023212;28;20702;-71
2023/11/16 05:37:30;;;;;;;9.20;3.93;;;;;;;7.51;73.48;96365.94;5025360;28;20414;-70
2023/11/16 05:39:55;;;;;;;8.10;4.40;;;;;;;7.58;74.05;96363.94;5024123;28;20242;-71
2023/11/16 05:42:21;;;;;;;11.87;4.50;;;;;;;7.57;73.87;96357.03;5024427;28;20191;-72
2023/11/16 05:44:46;;;;;;;10.00;4.60;;;;;;;7.57;74.03;96364.84;5023081;28;20188;-70
2023/11/16 05:47:12;;;;;;;5.70;3.70;;;;;;;7.50;74.66;96371.19;5026659;28;20198;-71
2023/11/16 05:49:37;;;;;;;15.63;5.57;;;;;;;7.59;74.55;96374.34;5024105;28;20182;-70
2023/11/16 05:52:06;;;;;;;5.97;4.30;;;;;;;7.58;73.88;96363.94;5016718;28;20203;-71
2023/11/16 05:54:32;;;;;;;7.33;4.57;;;;;;;7.60;74.37;96351.69;5033828;28;20221;-70
2023/11/16 05:56:57;;;;;;;7.87;4.23;;;;;;;7.68;74.02;96352.31;5025643;28;20912;-68
2023/11/16 05:59:22;;;;;;;18.80;6.67;;;;;;;7.62;74.07;96348.13;5025493;28;20626;-71
2023/11/16 06:01:48;;;;;;;8.70;5.30;;;;;;;7.79;73.62;96342.31;5033174;28;20273;-70
2023/11/16 06:04:13;;;;;;;9.50;5.43;;;;;;;7.80;72.83;96332.75;5031722;28;20262;-72
2023/11/16 06:06:39;;;;;;;21.23;7.13;;;;;;;7.64;74.14;96333.25;5034636;28;20183;-72
2023/11/16 06:09:05;;;;;;;16.40;5.70;;;;;;;7.51;74.27;96339.81;5029896;28;20190;-72
2023/11/16 06:11:31;;;;;;;8.47;4.90;;;;;;;7.52;74.39;96331.06;5038566;28;20203;-72
2023/11/16 06:13:59;;;;;;;15.60;4.43;;;;;;;7.55;74.34;96328.34;5028765;28;20525;-72
2023/11/16 06:16:25;;;;;;;6.27;3.50;;;;;;;7.46;74.15;96328.63;5028934;28;20438;-73
2023/11/16 06:18:53;;;;;;;10.47;4.97;;;;;;;7.50;74.55;96330.25;5045020;28;20448;-72
2023/11/16 06:21:19;;;;;;;10.87;4.77;;;;;;;7.43;74.74;96332.19;5036503;28;20458;-72
2023/11/16 06:23:45;;;;;;;7.63;4.67;;;;;;;7.55;74.22;96323.13;5028690;28;20786;-71
2023/11/16 06:26:10;;;;;;;17.67;5.77;;;;;;;7.55;74.17;96330.09;5025209;28;20534;-71
2023/11/16 06:28:35;;;;;;;13.90;5.87;;;;;;;7.51;74.44;96320.66;5025413;28;20651;-70
2023/11/16 06:31:01;;;;;;;16.70;5.27;;;;;;;7.69;73.16;96319.19;5026033;28;20220;-71
2023/11/16 06:33:27;;;;;;;5.20;4.17;;;;;;;7.63;73.96;96305.44;5024673;28;20189;-70
2023/11/16 06:35:52;;;;;;;13.63;4.30;;;;;;;7.66;73.82;96312.31;5029157;28;20182;-71
2023/11/16 06:38:18;;;;;;;9.10;4.80;;;;;;;7.71;73.39;96299.97;5028596;28;20688;-72
2023/11/16 06:40:43;;;;;;;13.00;5.30;;;;;;;7.92;72.36;96298.38;5031060;28;20199;-71
2023/11/16 06:43:10;;;;;;;10.63;4.60;;;;;;;7.58;73.10;96298.66;5028398;28;20320;-72
2023/11/16 06:45:39;;;;;;;26.77;5.73;;;;;;;7.65;73.12;96313.22;5026527;28;20179;-71
2023/11/16 06:48:05;;;;;;;12.80;5.40;;;;;;;7.51;74.01;96307.59;5026110;28;20797;-71
2023/11/16 06:50:33;;;;;;;7.83;4.40;;;;;;;7.43;74.04;96306.09;5032311;28;20495;-71
2023/11/16 06:53:05;;;;;;;9.67;5.90;;;;;;;7.39;74.50;96301.03;5026513;28;20415;-71
2023/11/16 06:55:34;;;;;;;10.47;5.40;;;;;;;7.45;74.08;96294.75;5022869;28;20426;-71
2023/11/16 06:58:00;;;;;;;9.13;4.93;;;;;;;7.42;73.60;96288.75;5023311;28;21335;-71
2023/11/16 07:00:27;;;;;;;9.23;5.20;;;;;;;7.46;73.23;96293.84;5023430;28;20421;-72
2023/11/16 07:02:53;;;;;;;4.97;4.47;;;;;;;7.56;73.65;96292.63;5023617;28;20458;-71
2023/11/16 07:05:19;;;;;;;9.50;4.43;;;;;;;7.55;73.78;96294.38;5024390;28;20968;-70
2023/11/16 07:07:45;;;;;;;10.37;4.43;;;;;;;7.57;73.53;96292.59;5028171;28;20426;-71
2023/11/16 07:10:10;;;;;;;8.03;4.00;;;;;;;7.15;75.03;96287.88;5029476;28;20424;-71
2023/11/16 07:12:39;;;;;;;7.37;4.53;;;;;;;7.47;74.55;96279.91;5028378;28;20258;-71
2023/11/16 07:15:05;;;;;;;8.07;5.43;;;;;;;7.60;73.72;96278.56;5023100;28;20191;-71
2023/11/16 07:17:31;;;;;;;10.43;4.83;;;;;;;7.63;73.14;96270.66;5023268;28;20462;-70
2023/11/16 07:19:57;;;;;;;14.93;7.60;;;;;;;7.68;73.06;96279.19;5023308;28;20414;-70
2023/11/16 07:22:25;;;;;;;13.50;4.60;;;;;;;7.71;72.89;96280.81;5025083;28;20456;-70
2023/11/16 07:24:50;;;;;;;10.47;5.87;;;;;;;7.68;72.34;96273.94;5035835;28;20183;-70
2023/11/16 07:27:16;;;;;;;9.67;6.07;;;;;;;7.64;72.59;96267.97;5041722;28;21032;-70
2023/11/16 07:29:43;;;;;;;8.33;4.40;;;;;;;7.67;72.86;96277.44;5033906;28;20186;-70
2023/11/16 07:32:09;;;;;;;6.97;4.73;;;;;;;7.72;72.36;96272.91;5032540;28;20228;-70
2023/11/16 07:34:39;;;;;;;9.40;5.23;;;;;;;7.72;72.02;96265.09;5030815;28;20453;-71
2023/11/16 07:37:04;;;;;;;10.60;4.50;;;;;;;7.72;72.73;96275.53;5028410;28;20451;-71
2023/11/16 07:39:30;;;;;;;14.10;5.10;;;;;;;7.82;72.32;96274.31;5038833;28;20445;-72
2023/11/16 07:41:57;;;;;;;8.90;4.27;;;;;;;7.74;71.94;96284.16;5034559;28;20187;-71
2023/11/16 07:44:23;;;;;;;7.23;4.80;;;;;;;7.72;72.94;96278.13;5033259;28;20778;-70
2023/11/16 07:46:48;;;;;;;10.17;4.20;;;;;;;7.79;72.25;96276.19;5035895;28;20445;-70
2023/11/16 07:49:14;;;;;;;5.50;3.77;;;;;;;7.79;72.21;96263.13;5030882;28;20189;-70
2023/11/16 07:51:40;;;;;;;10.57;4.30;;;;;;;7.80;72.21;96252.63;5040597;28;20238;-70
2023/11/16 07:54:07;;;;;;;6.60;3.93;;;;;;;7.79;72.13;96261.34;5033656;28;20423;-71
2023/11/16 07:56:34;;;;;;;14.43;6.00;;;;;;;7.78;73.00;96256.19;5028966;28;20742;-70
2023/11/16 07:58:59;;;;;;;7.33;4.67;;;;;;;7.84;72.39;96249.00;5028498;28;20434;-71
2023/11/16 08:01:29;;;;;;;15.17;5.13;;;;;;;7.84;72.60;96254.22;5038809;28;20459;-70
2023/11/16 08:03:55;;;;;;;14.50;4.63;;;;;;;7.91;72.17;96249.63;5033471;28;20195;-69
2023/11/16 08:06:28;;;;;;;11.67;4.37;;;;;;;7.86;71.85;96246.31;5030005;28;21111;-72
2023/11/16 08:08:54;;;;;;;14.77;4.80;;;;;;;7.84;72.05;96243.78;5032345;28;20433;-70
2023/11/16 08:11:20;;;;;;;9.23;5.20;;;;;;;7.93;72.01;96234.72;5030046;28;20438;-72
2023/11/16 08:13:46;;;;;;;6.93;3.80;;;;;;;7.82;72.40;96235.13;5036624;28;20516;-71
2023/11/16 08:16:15;;;;;;;7.57;3.80;;;;;;;7.89;71.94;96233.16;5037822;28;20207;-72
2023/11/16 08:18:44;;;;;;;9.23;4.63;;;;;;;7.92;71.85;96233.03;5046837;28;20440;-71
2023/11/16 08:21:10;;;;;;;17.60;4.40;;;;;;;8.02;71.46;96226.56;5058475;28;20450;-71
2023/11/16 08:23:45;;;;;;;7.83;4.30;;;;;;;8.19;71.02;96222.47;5054183;28;20458;-70
2023/11/16 08:26:13;;;;;;;7.67;3.60;;;;;;;8.34;70.73;96216.69;5032368;28;20881;-71
2023/11/16 08:28:42;;;;;;;6.13;3.90;;;;;;;8.58;76.33;96207.06;5031713;28;20941;-70
2023/11/16 08:31:07;;;;;;;8.13;3.53;;;;;;;11.30;85.12;96202.06;5031164;28;21116;-70
2023/11/16 08:33:33;;;;;;;9.70;4.43;;;;;;;10.06;65.80;96204.38;5034416;28;20421;-71
2023/11/16 08:36:00;;;;;;;21.40;5.47;;;;;;;9.27;68.29;96199.03;5037729;28;20178;-70
2023/11/16 08:38:26;;;;;;;9.53;4.20;;;;;;;8.93;68.74;96204.81;5028179;28;20410;-70
2023/11/16 08:40:58;;;;;;;6.10;3.77;;;;;;;8.79;69.26;96207.16;5028266;28;20534;-72
2023/11/16 08:43:27;;;;;;;11.57;4.53;;;;;;;8.64;69.99;96196.34;5028115;28;20464;-69
2023/11/16 08:45:55;;;;;;;15.70;4.00;;;;;;;8.66;70.00;96189.28;5027464;28;21405;-71
2023/11/16 08:48:31;;;;;;;8.33;3.90;;;;;;;8.65;70.06;96177.16;5027634;28;20450;-71
2023/11/16 08:51:02;;;;;;;10.00;4.37;;;;;;;8.58;69.82;96170.47;5027576;28;20500;-71
2023/11/16 08:53:32;;;;;;;23.30;4.80;;;;;;;8.63;69.97;96162.44;5033445;28;20433;-71
2023/11/16 08:56:04;;;;;;;12.33;4.60;;;;;;;8.60;69.85;96152.94;5043318;28;20648;-70
2023/11/16 08:58:44;;;;;;;13.77;4.53;;;;;;;8.58;69.74;96146.91;5047515;28;21310;-70
2023/11/16 09:01:12;;;;;;;8.00;5.03;;;;;;;8.63;69.51;96144.97;5046019;28;20445;-71
2023/11/16 09:03:37;;;;;;;14.23;3.83;;;;;;;8.61;70.26;96141.56;5047511;28;20522;-71
2023/11/16 09:06:04;;;;;;;8.07;3.53;;;;;;;8.54;69.37;96134.88;5047695;28;20417;-72
2023/11/16 09:08:33;;;;;;;7.10;4.00;;;;;;;8.54;70.08;96140.09;5047306;28;20182;-72
2023/11/16 09:10:59;;;;;;;11.40;7.70;;;;;;;8.51;69.90;96134.16;5047552;28;20437;-71
2023/11/16 09:13:24;;;;;;;11.27;5.13;;;;;;;8.54;70.46;96134.88;5047161;28;20421;-71
2023/11/16 09:15:49;;;;;;;9.83;4.00;;;;;;;8.64;70.08;96140.56;5044448;28;20190;-72
2023/11/16 09:18:15;;;;;;;7.43;3.90;;;;;;;8.57;69.65;96128.66;5047031;28;20626;-71
2023/11/16 09:20:45;;;;;;;13.93;4.50;;;;;;;8.64;69.30;96128.34;5047246;28;20294;-72
2023/11/16 09:23:14;;;;;;;7.10;3.50;;;;;;;8.70;69.61;96119.41;5047169;28;20461;-72
2023/11/16 09:25:40;;;;;;;5.83;4.03;;;;;;;8.68;69.17;96116.00;5046872;28;20410;-70
2023/11/16 09:28:06;;;;;;;8.33;4.57;;;;;;;8.72;69.54;96112.34;5047484;28;20420;-71
2023/11/16 09:30:34;;;;;;;7.87;4.50;;;;;;;8.66;69.70;96113.44;5047558;28;20633;-71
2023/11/16 09:33:01;;;;;;;5.93;3.70;;;;;;;8.77;69.47;96106.94;5039694;28;21287;-72
2023/11/16 09:35:27;;;;;;;6.60;3.40;;;;;;;8.72;69.31;96106.25;5027252;28;20488;-71
2023/11/16 09:37:53;;;;;;;7.87;3.60;;;;;;;8.82;69.25;96104.97;5027254;28;20410;-70
2023/11/16 09:40:21;;;;;;;8.27;3.87;;;;;;;8.83;69.35;96099.66;5026520;28;20450;-72
2023/11/16 09:42:56;;;;;;;7.20;3.47;;;;;;;8.83;69.70;96098.81;5026514;28;20461;-72
2023/11/16 09:45:23;;;;;;;5.57;3.60;;;;;;;8.66;70.25;96091.66;5025919;28;20512;-71
2023/11/16 09:47:57;;;;;;;6.23;3.07;;;;;;;8.79;69.55;96102.50;5025273;28;20425;-73
2023/11/16 09:50:26;;;;;;;5.63;3.63;;;;;;;8.76;69.81;96097.38;5026203;28;21187;-71
2023/11/16 09:52:56;;;;;;;13.77;3.60;;;;;;;8.78;69.57;96095.53;5025820;28;20421;-73
2023/11/16 09:55:23;;;;;;;8.33;3.43;;;;;;;8.90;69.25;96095.03;5025997;28;20466;-72
2023/11/16 09:57:49;;;;;;;10.43;4.03;;;;;;;8.92;69.27;96087.97;5026418;28;20418;-73
2023/11/16 10:00:18;;;;;;;9.80;3.77;;;;;;;8.86;69.12;96085.63;5026332;28;20948;-73
2023/11/16 10:02:49;;;;;;;7.50;4.80;;;;;;;8.75;69.16;96083.44;5025995;28;20550;-73
2023/11/16 10:05:22;;;;;;;11.43;4.03;;;;;;;8.72;69.88;96074.84;5026574;28;22416;-73
2023/11/16 10:07:52;;;;;;;14.20;4.73;;;;;;;8.79;69.48;96071.09;5027596;28;20430;-73
2023/11/16 10:10:19;;;;;;;9.13;4.20;;;;;;;8.81;69.73;96059.66;5026064;28;20492;-73
2023/11/16 10:12:47;;;;;;;9.10;3.67;;;;;;;8.76;69.45;96055.50;5034973;28;20953;-72
2023/11/16 10:15:20;;;;;;;13.93;3.70;;;;;;;8.73;69.19;96050.41;5028572;28;20504;-72
2023/11/16 10:17:45;;;;;;;8.77;4.07;;;;;;;8.89;69.11;96041.00;5026111;28;20433;-72
2023/11/16 10:20:11;;;;;;;11.20;4.10;;;;;;;8.92;68.90;96040.00;5031805;28;20803;-72
2023/11/16 10:22:38;;;;;;;11.53;3.93;;;;;;;9.00;69.22;96020.47;5026468;28;20215;-68
2023/11/16 10:25:06;;;;;;;7.50;3.40;;;;;;;9.09;68.08;96020.06;5039091;28;20207;-69
2023/11/16 10:27:34;;;;;;;5.03;3.00;;;;;;;8.85;68.27;96011.47;5033131;28;20504;-69
2023/11/16 10:30:04;;;;;;;7.63;3.30;;;;;;;8.89;68.16;96006.97;5030487;28;20479;-69
2023/11/16 10:32:29;;;;;;;3.57;2.67;;;;;;;8.87;67.80;95995.72;5029527;28;20457;-70
2023/11/16 10:34:56;;;;;;;4.67;2.50;;;;;;;8.78;67.96;95988.28;5037028;28;20943;-70
2023/11/16 10:37:24;;;;;;;6.63;3.23;;;;;;;8.96;68.11;95979.63;5026433;28;20179;-70
2023/11/16 10:39:51;;;;;;;7.60;3.70;;;;;;;9.09;66.79;95974.69;5032076;28;20438;-70
2023/11/16 10:42:18;;;;;;;5.33;3.23;;;;;;;9.16;66.73;95963.00;5026988;28;21201;-69
2023/11/16 10:44:47;;;;;;;6.50;3.27;;;;;;;9.01;67.51;95956.72;5024742;28;20767;-71
2023/11/16 10:47:13;;;;;;;15.80;4.60;;;;;;;9.16;66.85;95943.84;5030159;28;20426;-70
2023/11/16 10:49:39;;;;;;;10.53;4.00;;;;;;;9.15;66.78;95936.94;5025819;28;20476;-69
2023/11/16 10:52:06;;;;;;;7.07;6.03;;;;;;;9.19;67.29;95930.59;5025759;28;20438;-68
2023/11/16 10:54:39;;;;;;;8.80;4.30;;;;;;;9.07;67.49;95926.78;5033909;28;20577;-69
2023/11/16 10:57:05;;;;;;;7.10;4.03;;;;;;;9.14;67.46;95916.88;5025290;28;20429;-69
2023/11/16 10:59:32;;;;;;;13.13;3.73;;;;;;;9.22;67.74;95917.41;5027807;28;20417;-69
2023/11/16 11:01:58;;;;;;;12.13;4.40;;;;;;;9.21;67.45;95898.22;5029445;28;20198;-68
2023/11/16 11:04:25;;;;;;;9.00;5.03;;;;;;;9.16;68.30;95892.34;5041008;28;20433;-68
2023/11/16 11:06:54;;;;;;;6.70;4.10;;;;;;;9.20;67.96;95899.13;5034164;28;20468;-68
2023/11/16 11:09:22;;;;;;;9.87;3.87;;;;;;;9.11;67.86;95887.31;5032502;28;21303;-68
2023/11/16 11:11:51;;;;;;;6.83;4.20;;;;;;;9.18;67.83;95880.03;5038377;28;20983;-69
2023/11/16 11:14:25;;;;;;;12.67;4.23;;;;;;;9.22;68.10;95867.66;5035805;28;20432;-69
2023/11/16 11:16:51;;;;;;;7.40;4.60;;;;;;;9.15;68.29;95847.91;5032252;28;20446;-69
2023/11/16 11:19:26;;;;;;;19.57;3.80;;;;;;;8.97;68.64;95845.22;5037397;28;20968;-69
2023/11/16 11:21:51;;;;;;;10.33;4.33;;;;;;;9.17;68.37;95846.09;5033139;28;20233;-69
2023/11/16 11:24:17;;;;;;;7.60;3.53;;;;;;;9.04;68.36;95835.31;5034710;28;20501;-69
2023/11/16 11:26:48;;;;;;;8.20;3.03;;;;;;;9.09;68.52;95826.34;5039174;28;20195;-69
2023/11/16 11:29:14;;;;;;;11.43;4.73;;;;;;;10.72;86.83;95809.44;5033810;28;20599;-72
2023/11/16 11:32:03;;;;;;;7.03;3.67;;;;;;;12.19;74.89;95787.09;5040556;28;20441;-71
2023/11/16 11:34:32;;;;;;;7.50;3.27;;;;;;;12.08;64.66;95778.06;5029415;28;21147;-72
2023/11/16 11:36:58;;;;;;;7.83;2.77;;;;;;;12.70;66.17;95759.38;5032466;28;20429;-71
2023/11/16 11:39:34;;;;;;;8.63;3.17;;;;;;;12.24;64.55;95762.22;5037479;28;20780;-71